createdAt,value
2023-10-07T00:00:41.631Z,11.62
2023-10-07T00:03:08.407Z,11.93
2023-10-07T00:05:40.590Z,11.81
2023-10-07T00:08:09.309Z,11.72
2023-10-07T00:10:39.205Z,11.66
2023-10-07T00:13:10.991Z,11.85
2023-10-07T00:15:38.571Z,11.64
2023-10-07T00:18:14.493Z,11.55
2023-10-07T00:20:43.989Z,11.49
2023-10-07T00:23:10.878Z,11.56
2023-10-07T00:25:39.389Z,11.69
2023-10-07T00:28:19.026Z,11.82
2023-10-07T00:30:50.628Z,11.55
2023-10-07T00:33:22.751Z,11.60
2023-10-07T00:35:57.125Z,11.51
2023-10-07T00:38:24.856Z,11.33
2023-10-07T00:40:57.137Z,11.49
2023-10-07T00:43:29.000Z,11.29
2023-10-07T00:46:12.286Z,11.38
2023-10-07T00:48:46.622Z,11.36
2023-10-07T00:51:14.499Z,11.21
2023-10-07T00:53:46.993Z,11.11
2023-10-07T00:56:17.537Z,11.18
2023-10-07T00:58:47.991Z,11.48
2023-10-07T01:01:15.860Z,11.50
2023-10-07T01:03:57.090Z,11.37
2023-10-07T01:06:27.381Z,11.57
2023-10-07T01:08:59.844Z,11.54
2023-10-07T01:11:31.105Z,11.61
2023-10-07T01:13:58.634Z,11.46
2023-10-07T01:16:28.395Z,11.15
2023-10-07T01:19:04.299Z,11.37
2023-10-07T01:21:34.628Z,11.40
2023-10-07T01:24:06.758Z,11.10
2023-10-07T01:26:33.735Z,10.81
2023-10-07T01:29:16.870Z,10.93
2023-10-07T01:32:00.785Z,10.95
2023-10-07T01:34:31.490Z,10.92
2023-10-07T01:37:02.138Z,10.79
2023-10-07T01:39:41.834Z,10.93
2023-10-07T01:42:13.777Z,11.00
2023-10-07T01:44:42.209Z,11.13
2023-10-07T01:47:24.746Z,11.00
2023-10-07T01:49:55.116Z,11.06
2023-10-07T01:52:28.594Z,11.16
2023-10-07T01:54:56.561Z,11.02
2023-10-07T01:57:23.325Z,11.04
2023-10-07T01:59:50.849Z,11.11
2023-10-07T02:02:17.496Z,11.06
2023-10-07T02:04:44.187Z,11.07
2023-10-07T02:07:10.915Z,10.96
2023-10-07T02:09:42.056Z,11.04
2023-10-07T02:12:12.984Z,10.87
2023-10-07T02:14:40.311Z,11.03
2023-10-07T02:17:09.749Z,10.82
2023-10-07T02:19:36.780Z,11.08
2023-10-07T02:22:05.062Z,10.77
2023-10-07T02:24:33.428Z,10.73
2023-10-07T02:27:01.102Z,10.54
2023-10-07T02:29:29.438Z,10.40
2023-10-07T02:32:07.750Z,10.75
2023-10-07T02:34:35.200Z,10.51
2023-10-07T02:37:22.269Z,10.53
2023-10-07T02:39:52.685Z,10.77
2023-10-07T02:42:22.957Z,10.89
2023-10-07T02:45:01.874Z,10.67
2023-10-07T02:47:32.900Z,10.77
2023-10-07T02:50:02.829Z,10.74
2023-10-07T02:52:37.452Z,10.74
2023-10-07T02:55:28.670Z,10.74
2023-10-07T02:57:58.432Z,10.64
2023-10-07T03:00:53.062Z,10.55
2023-10-07T03:03:26.132Z,10.58
2023-10-07T03:06:10.917Z,10.59
2023-10-07T03:08:55.808Z,10.71
2023-10-07T03:11:22.748Z,10.63
2023-10-07T03:13:51.632Z,10.42
2023-10-07T03:16:21.995Z,10.39
2023-10-07T03:18:57.799Z,10.41
2023-10-07T03:21:36.649Z,10.28
2023-10-07T03:24:09.299Z,10.05
2023-10-07T03:26:36.173Z,10.26
2023-10-07T03:29:06.646Z,10.54
2023-10-07T03:31:41.226Z,10.54
2023-10-07T03:34:13.459Z,10.62
2023-10-07T03:36:46.158Z,10.59
2023-10-07T03:39:23.536Z,10.33
2023-10-07T03:42:01.024Z,10.39
2023-10-07T03:44:29.219Z,10.40
2023-10-07T03:46:56.739Z,10.38
2023-10-07T03:49:24.632Z,10.29
2023-10-07T03:52:13.381Z,10.06
2023-10-07T03:54:43.995Z,10.10
2023-10-07T03:57:11.094Z,10.16
2023-10-07T03:59:38.685Z,9.83
2023-10-07T04:02:24.279Z,9.98
2023-10-07T04:05:01.290Z,10.09
2023-10-07T04:07:32.326Z,10.09
2023-10-07T04:10:25.359Z,10.25
2023-10-07T04:12:57.509Z,10.14
2023-10-07T04:15:30.572Z,10.28
2023-10-07T04:18:01.077Z,9.93
2023-10-07T04:20:48.137Z,10.10
2023-10-07T04:23:22.180Z,9.87
2023-10-07T04:25:48.958Z,10.07
2023-10-07T04:28:15.599Z,10.14
2023-10-07T04:30:48.494Z,10.26
2023-10-07T04:33:18.963Z,10.20
2023-10-07T04:35:50.776Z,10.17
2023-10-07T04:38:40.210Z,10.20
2023-10-07T04:41:22.720Z,10.02
2023-10-07T04:44:09.223Z,10.06
2023-10-07T04:46:44.196Z,10.03
2023-10-07T04:49:14.325Z,9.84
2023-10-07T04:51:44.620Z,9.86
2023-10-07T04:54:12.760Z,9.68
2023-10-07T04:56:41.068Z,10.14
2023-10-07T04:59:08.175Z,10.43
2023-10-07T05:01:35.884Z,10.53
2023-10-07T05:04:06.479Z,10.46
2023-10-07T05:06:37.106Z,10.35
2023-10-07T05:09:10.854Z,10.23
2023-10-07T05:11:45.039Z,10.28
2023-10-07T05:14:12.174Z,10.35
2023-10-07T05:16:39.611Z,10.03
2023-10-07T05:19:21.001Z,9.96
2023-10-07T05:22:00.167Z,10.15
2023-10-07T05:24:30.921Z,10.29
2023-10-07T05:27:01.293Z,9.98
2023-10-07T05:29:29.501Z,10.28
2023-10-07T05:31:57.807Z,10.36
2023-10-07T05:34:31.658Z,10.31
2023-10-07T05:37:04.957Z,10.48
2023-10-07T05:39:33.915Z,10.53
2023-10-07T05:42:04.522Z,10.47
2023-10-07T05:44:31.780Z,10.78
2023-10-07T05:47:00.431Z,10.61
2023-10-07T05:49:27.197Z,10.83
2023-10-07T05:51:54.416Z,10.73
2023-10-07T05:54:21.256Z,10.90
2023-10-07T05:56:50.717Z,10.69
2023-10-07T05:59:17.398Z,10.72
2023-10-07T06:01:44.383Z,10.90
2023-10-07T06:04:12.900Z,10.95
2023-10-07T06:06:43.368Z,11.14
2023-10-07T06:09:15.174Z,11.27
2023-10-07T06:11:45.836Z,11.50
2023-10-07T06:14:13.097Z,11.42
2023-10-07T06:16:41.237Z,11.74
2023-10-07T06:19:09.107Z,11.88
2023-10-07T06:21:35.917Z,12.28
2023-10-07T06:24:08.040Z,12.42
2023-10-07T06:26:36.551Z,12.66
2023-10-07T06:29:07.607Z,12.60
2023-10-07T06:31:34.831Z,12.73
2023-10-07T06:34:02.166Z,12.53
2023-10-07T06:36:33.407Z,12.83
2023-10-07T06:39:02.565Z,13.46
2023-10-07T06:41:30.997Z,13.45
2023-10-07T06:44:05.550Z,13.44
2023-10-07T06:46:42.184Z,13.91
2023-10-07T06:49:18.297Z,14.83
2023-10-07T06:51:46.613Z,15.29
2023-10-07T06:54:15.354Z,15.72
2023-10-07T06:56:42.031Z,15.94
2023-10-07T06:59:14.178Z,16.23
2023-10-07T07:01:40.856Z,16.33
2023-10-07T07:04:12.781Z,16.34
2023-10-07T07:06:46.575Z,16.42
2023-10-07T07:09:36.122Z,16.52
2023-10-07T07:12:05.785Z,16.40
2023-10-07T07:14:34.781Z,15.56
2023-10-07T07:17:35.178Z,15.34
2023-10-07T07:20:12.367Z,15.91
2023-10-07T07:22:44.414Z,16.10
2023-10-07T07:25:27.884Z,15.94
2023-10-07T07:27:54.621Z,15.70
2023-10-07T07:30:40.489Z,15.78
2023-10-07T07:33:09.081Z,15.67
2023-10-07T07:35:41.207Z,16.00
2023-10-07T07:38:26.880Z,16.73
2023-10-07T07:41:07.168Z,17.48
2023-10-07T07:43:35.505Z,18.42
2023-10-07T07:46:19.378Z,18.59
2023-10-07T07:48:46.949Z,17.96
2023-10-07T07:51:18.032Z,17.58
2023-10-07T07:53:45.445Z,18.30
2023-10-07T07:56:14.901Z,18.08
2023-10-07T07:58:51.004Z,18.22
2023-10-07T08:01:29.949Z,18.31
2023-10-07T08:04:00.593Z,18.66
2023-10-07T08:06:27.611Z,18.34
2023-10-07T08:08:55.149Z,17.98
2023-10-07T08:11:22.571Z,18.78
2023-10-07T08:13:54.391Z,20.23
2023-10-07T08:16:21.566Z,19.20
2023-10-07T08:18:55.577Z,19.56
2023-10-07T08:21:29.803Z,18.98
2023-10-07T08:24:02.530Z,19.76
2023-10-07T08:26:29.921Z,19.46
2023-10-07T08:28:59.394Z,20.35
2023-10-07T08:31:39.714Z,20.48
2023-10-07T08:34:10.734Z,19.93
2023-10-07T08:36:40.166Z,19.76
2023-10-07T08:39:07.587Z,20.43
2023-10-07T08:41:34.343Z,20.07
2023-10-07T08:44:17.075Z,20.08
2023-10-07T08:46:55.486Z,20.50
2023-10-07T08:49:27.284Z,20.60
2023-10-07T08:51:55.878Z,20.41
2023-10-07T08:54:33.175Z,20.70
2023-10-07T08:57:10.188Z,21.11
2023-10-07T08:59:39.143Z,21.48
2023-10-07T09:02:05.895Z,20.71
2023-10-07T09:04:33.208Z,21.88
2023-10-07T09:07:10.156Z,21.05
2023-10-07T09:09:40.671Z,20.85
2023-10-07T09:12:29.671Z,21.39
2023-10-07T09:14:59.230Z,21.13
2023-10-07T09:17:29.224Z,21.42
2023-10-07T09:19:59.941Z,21.90
2023-10-07T09:22:35.685Z,22.48
2023-10-07T09:25:18.478Z,21.45
2023-10-07T09:27:55.832Z,21.96
2023-10-07T09:30:45.780Z,20.42
2023-10-07T09:33:18.866Z,20.82
2023-10-07T09:36:11.250Z,21.60
2023-10-07T09:38:43.090Z,21.90
2023-10-07T09:41:13.970Z,21.06
2023-10-07T09:43:53.320Z,20.62
2023-10-07T09:48:58.671Z,21.76
2023-10-07T09:51:29.635Z,21.91
2023-10-07T09:54:03.728Z,22.58
2023-10-07T09:57:01.088Z,23.65
2023-10-07T09:59:33.342Z,23.27
2023-10-07T10:02:27.206Z,22.62
2023-10-07T10:05:16.084Z,23.75
2023-10-07T10:08:14.621Z,25.27
2023-10-07T10:10:46.055Z,25.12
2023-10-07T10:13:53.412Z,24.76
2023-10-07T10:16:45.463Z,24.84
2023-10-07T10:19:19.172Z,25.27
2023-10-07T10:21:45.938Z,25.32
2023-10-07T10:24:16.666Z,25.91
2023-10-07T10:26:45.506Z,26.74
2023-10-07T10:29:18.350Z,27.14
2023-10-07T10:31:52.246Z,25.06
2023-10-07T10:34:21.493Z,24.47
2023-10-07T10:36:51.002Z,26.50
2023-10-07T10:39:40.323Z,28.75
2023-10-07T10:42:11.524Z,27.98
2023-10-07T10:44:39.623Z,27.00
2023-10-07T10:47:09.094Z,25.71
2023-10-07T10:49:36.414Z,27.59
2023-10-07T10:52:03.966Z,25.28
2023-10-07T10:54:30.837Z,26.84
2023-10-07T10:56:59.449Z,25.73
2023-10-07T10:59:38.197Z,27.31
2023-10-07T11:02:06.520Z,26.97
2023-10-07T11:04:33.408Z,27.78
2023-10-07T11:07:01.208Z,27.00
2023-10-07T11:09:36.978Z,28.39
2023-10-07T11:12:11.217Z,28.21
2023-10-07T11:14:39.679Z,28.83
2023-10-07T11:17:07.199Z,29.07
2023-10-07T11:19:41.642Z,29.24
2023-10-07T11:22:08.405Z,29.51
2023-10-07T11:24:36.380Z,29.28
2023-10-07T11:27:03.984Z,29.39
2023-10-07T11:29:33.709Z,28.86
2023-10-07T11:32:02.260Z,29.03
2023-10-07T11:34:34.368Z,29.41
2023-10-07T11:37:10.253Z,28.48
2023-10-07T11:39:44.327Z,29.70
2023-10-07T11:42:16.361Z,29.38
2023-10-07T11:44:47.317Z,30.09
2023-10-07T11:47:17.769Z,29.05
2023-10-07T11:49:48.380Z,29.71
2023-10-07T11:52:18.976Z,29.38
2023-10-07T11:54:49.729Z,27.86
2023-10-07T11:57:21.282Z,29.63
2023-10-07T11:59:47.909Z,30.01
2023-10-07T12:02:16.602Z,30.46
2023-10-07T12:04:48.716Z,30.40
2023-10-07T12:07:17.508Z,29.25
2023-10-07T12:09:52.222Z,29.42
2023-10-07T12:12:19.125Z,29.28
2023-10-07T12:14:47.463Z,30.25
2023-10-07T12:17:15.755Z,30.53
2023-10-07T12:19:42.584Z,31.03
2023-10-07T12:22:09.855Z,29.56
2023-10-07T12:24:38.564Z,30.73
2023-10-07T12:27:07.884Z,30.89
2023-10-07T12:29:35.154Z,30.04
2023-10-07T12:32:02.016Z,30.47
2023-10-07T12:34:31.395Z,30.48
2023-10-07T12:36:58.036Z,30.53
2023-10-07T12:39:24.737Z,30.19
2023-10-07T12:41:51.355Z,30.53
2023-10-07T12:44:18.210Z,30.58
2023-10-07T12:46:45.421Z,30.53
2023-10-07T12:49:15.299Z,31.29
2023-10-07T12:51:43.798Z,30.35
2023-10-07T12:54:11.372Z,30.30
2023-10-07T12:56:49.271Z,29.16
2023-10-07T12:59:19.508Z,30.46
2023-10-07T13:01:51.848Z,30.62
2023-10-07T13:04:20.668Z,30.21
2023-10-07T13:06:49.963Z,29.58
2023-10-07T13:09:19.208Z,29.27
2023-10-07T13:11:46.977Z,29.22
2023-10-07T13:14:14.195Z,30.17
2023-10-07T13:16:46.609Z,29.92
2023-10-07T13:19:15.166Z,29.76
2023-10-07T13:21:42.927Z,29.60
2023-10-07T13:24:12.835Z,29.92
2023-10-07T13:26:39.977Z,29.78
2023-10-07T13:29:11.658Z,30.19
2023-10-07T13:31:41.822Z,30.71
2023-10-07T13:34:08.763Z,28.10
2023-10-07T13:36:40.170Z,28.99
2023-10-07T13:39:16.645Z,29.60
2023-10-07T13:41:48.190Z,29.89
2023-10-07T13:44:18.329Z,30.55
2023-10-07T13:46:46.586Z,29.36
2023-10-07T13:49:16.898Z,30.10
2023-10-07T13:51:45.812Z,29.61
2023-10-07T13:54:23.443Z,30.34
2023-10-07T13:56:58.577Z,30.81
2023-10-07T13:59:26.092Z,28.54
2023-10-07T14:01:53.901Z,27.90
2023-10-07T14:04:21.230Z,27.75
2023-10-07T14:06:49.025Z,28.48
2023-10-07T14:09:25.480Z,27.27
2023-10-07T14:11:58.281Z,28.65
2023-10-07T14:14:28.650Z,27.81
2023-10-07T14:16:59.701Z,27.77
2023-10-07T14:19:28.182Z,27.10
2023-10-07T14:21:54.868Z,26.75
2023-10-07T14:24:29.210Z,26.62
2023-10-07T14:26:57.440Z,25.88
2023-10-07T14:29:24.290Z,26.04
2023-10-07T14:31:53.145Z,25.90
2023-10-07T14:34:19.931Z,26.12
2023-10-07T14:36:47.087Z,25.66
2023-10-07T14:39:14.213Z,25.76
2023-10-07T14:41:42.746Z,25.11
2023-10-07T14:44:10.225Z,25.64
2023-10-07T14:46:43.626Z,25.94
2023-10-07T14:49:11.578Z,25.89
2023-10-07T14:51:38.624Z,25.61
2023-10-07T14:54:05.559Z,25.23
2023-10-07T14:56:32.243Z,25.06
2023-10-07T14:59:00.962Z,24.78
2023-10-07T15:01:28.948Z,24.74
2023-10-07T15:03:56.415Z,25.04
2023-10-07T15:06:23.814Z,24.23
2023-10-07T15:08:51.438Z,24.14
2023-10-07T15:11:19.744Z,24.55
2023-10-07T15:13:47.100Z,24.21
2023-10-07T15:16:14.040Z,24.26
2023-10-07T15:18:42.533Z,24.09
2023-10-07T15:21:12.917Z,24.21
2023-10-07T15:23:40.553Z,23.85
2023-10-07T15:26:14.063Z,23.71
2023-10-07T15:28:40.978Z,23.52
2023-10-07T15:31:09.405Z,23.29
2023-10-07T15:33:53.758Z,23.51
2023-10-07T15:36:20.467Z,23.70
2023-10-07T15:38:50.159Z,23.31
2023-10-07T15:41:17.735Z,23.43
2023-10-07T15:43:44.621Z,23.39
2023-10-07T15:46:11.455Z,22.69
2023-10-07T15:48:38.160Z,22.34
2023-10-07T15:51:07.606Z,22.32
2023-10-07T15:53:34.810Z,22.79
2023-10-07T15:56:07.795Z,22.62
2023-10-07T15:58:35.137Z,22.60
2023-10-07T16:01:04.685Z,22.25
2023-10-07T16:03:34.348Z,22.46
2023-10-07T16:06:01.456Z,22.66
2023-10-07T16:08:28.308Z,22.56
2023-10-07T16:10:55.054Z,22.07
2023-10-07T16:13:21.806Z,22.20
2023-10-07T16:15:48.453Z,22.09
2023-10-07T16:18:15.141Z,21.84
2023-10-07T16:20:42.573Z,21.70
2023-10-07T16:23:09.923Z,21.64
2023-10-07T16:25:36.622Z,21.77
2023-10-07T16:28:06.012Z,21.79
2023-10-07T16:30:32.847Z,21.57
2023-10-07T16:32:59.574Z,21.38
2023-10-07T16:35:26.314Z,21.62
2023-10-07T16:37:53.212Z,21.56
2023-10-07T16:40:20.155Z,21.38
2023-10-07T16:42:47.166Z,20.92
2023-10-07T16:45:14.216Z,20.62
2023-10-07T16:47:41.370Z,20.59
2023-10-07T16:50:10.127Z,20.90
2023-10-07T16:52:37.761Z,21.04
2023-10-07T16:55:07.673Z,21.26
2023-10-07T16:57:38.290Z,20.87
2023-10-07T17:00:06.775Z,20.80
2023-10-07T17:02:34.558Z,20.89
2023-10-07T17:05:02.653Z,20.88
2023-10-07T17:07:29.393Z,20.97
2023-10-07T17:09:56.984Z,20.88
2023-10-07T17:12:24.987Z,20.73
2023-10-07T17:14:51.767Z,20.77
2023-10-07T17:17:18.666Z,21.02
2023-10-07T17:19:45.435Z,20.81
2023-10-07T17:22:12.945Z,20.75
2023-10-07T17:24:43.943Z,20.66
2023-10-07T17:27:11.820Z,20.41
2023-10-07T17:29:40.157Z,20.62
2023-10-07T17:32:07.322Z,20.73
2023-10-07T17:34:34.449Z,20.77
2023-10-07T17:37:02.523Z,20.57
2023-10-07T17:39:33.107Z,20.62
2023-10-07T17:42:01.899Z,20.33
2023-10-07T17:44:28.791Z,20.36
2023-10-07T17:46:56.952Z,19.95
2023-10-07T17:49:24.289Z,20.29
2023-10-07T17:51:50.961Z,20.35
2023-10-07T17:54:17.721Z,20.32
2023-10-07T17:56:45.389Z,20.54
2023-10-07T17:59:12.918Z,20.29
2023-10-07T18:01:39.833Z,20.22
2023-10-07T18:04:06.822Z,20.25
2023-10-07T18:06:33.591Z,20.32
2023-10-07T18:09:00.255Z,20.15
2023-10-07T18:11:27.035Z,20.13
2023-10-07T18:13:53.764Z,20.03
2023-10-07T18:16:20.614Z,19.97
2023-10-07T18:18:47.280Z,19.81
2023-10-07T18:21:13.867Z,19.68
2023-10-07T18:23:40.655Z,19.65
2023-10-07T18:26:07.576Z,19.82
2023-10-07T18:28:34.250Z,19.77
2023-10-07T18:31:02.462Z,19.96
2023-10-07T18:33:30.039Z,19.75
2023-10-07T18:35:57.742Z,19.93
2023-10-07T18:38:24.458Z,20.03
2023-10-07T18:40:52.358Z,19.82
2023-10-07T18:43:19.286Z,19.58
2023-10-07T18:45:45.898Z,19.49
2023-10-07T18:48:13.212Z,19.63
2023-10-07T18:50:40.117Z,19.54
2023-10-07T18:53:06.943Z,19.52
2023-10-07T18:55:34.031Z,19.13
2023-10-07T18:58:08.951Z,19.22
2023-10-07T19:00:36.363Z,19.06
2023-10-07T19:03:03.215Z,18.54
2023-10-07T19:05:30.481Z,18.59
2023-10-07T19:07:57.517Z,18.58
2023-10-07T19:10:26.445Z,18.77
2023-10-07T19:12:53.171Z,19.12
2023-10-07T19:15:19.859Z,19.04
2023-10-07T19:17:47.801Z,18.87
2023-10-07T19:20:15.038Z,18.86
2023-10-07T19:22:43.051Z,19.08
2023-10-07T19:25:15.319Z,19.15
2023-10-07T19:27:42.372Z,19.03
2023-10-07T19:30:11.465Z,19.14
2023-10-07T19:32:42.482Z,18.92
2023-10-07T19:35:10.083Z,18.79
2023-10-07T19:37:36.945Z,19.12
2023-10-07T19:40:05.422Z,19.25
2023-10-07T19:42:32.173Z,20.41
2023-10-07T19:44:58.869Z,19.41
2023-10-07T19:47:25.709Z,19.02
2023-10-07T19:49:52.757Z,19.03
2023-10-07T19:52:19.419Z,19.28
2023-10-07T19:54:46.093Z,19.09
2023-10-07T19:57:13.457Z,18.82
2023-10-07T19:59:40.263Z,19.01
2023-10-07T20:02:07.094Z,18.98
2023-10-07T20:04:33.887Z,19.12
2023-10-07T20:07:00.613Z,18.70
2023-10-07T20:09:27.340Z,18.57
2023-10-07T20:11:54.035Z,18.58
2023-10-07T20:14:20.705Z,18.77
2023-10-07T20:16:47.489Z,18.70
2023-10-07T20:19:15.338Z,18.62
2023-10-07T20:21:42.601Z,18.33
2023-10-07T20:24:10.064Z,18.22
2023-10-07T20:26:38.616Z,18.15
2023-10-07T20:29:05.395Z,18.20
2023-10-07T20:31:32.057Z,18.33
2023-10-07T20:33:58.672Z,18.01
2023-10-07T20:36:25.300Z,18.33
2023-10-07T20:38:54.801Z,17.78
2023-10-07T20:41:21.706Z,17.75
2023-10-07T20:43:48.284Z,18.12
2023-10-07T20:46:15.135Z,18.16
2023-10-07T20:48:42.255Z,18.18
2023-10-07T20:51:11.700Z,17.92
2023-10-07T20:53:40.671Z,18.03
2023-10-07T20:56:09.021Z,17.82
2023-10-07T20:58:36.198Z,17.73
2023-10-07T21:01:07.007Z,18.12
2023-10-07T21:03:33.999Z,18.13
2023-10-07T21:06:03.387Z,17.68
2023-10-07T21:08:30.380Z,17.25
2023-10-07T21:10:57.121Z,17.27
2023-10-07T21:13:23.747Z,17.40
2023-10-07T21:15:50.441Z,17.49
2023-10-07T21:18:17.100Z,17.51
2023-10-07T21:20:44.638Z,17.51
2023-10-07T21:23:14.967Z,17.51
2023-10-07T21:25:47.094Z,17.48
2023-10-07T21:28:15.790Z,17.49
2023-10-07T21:30:49.812Z,17.40
2023-10-07T21:33:17.887Z,17.29
2023-10-07T21:35:45.654Z,17.26
2023-10-07T21:38:13.840Z,17.29
2023-10-07T21:40:42.924Z,17.16
2023-10-07T21:43:11.144Z,17.19
2023-10-07T21:45:38.393Z,17.11
2023-10-07T21:48:06.527Z,17.07
2023-10-07T21:50:34.793Z,16.77
2023-10-07T21:53:05.512Z,16.63
2023-10-07T21:55:34.070Z,16.80
2023-10-07T21:58:02.005Z,16.79
2023-10-07T22:00:28.848Z,16.39
2023-10-07T22:02:56.968Z,16.54
2023-10-07T22:05:26.974Z,16.81
2023-10-07T22:07:54.811Z,16.60
2023-10-07T22:10:33.053Z,16.59
2023-10-07T22:13:01.622Z,16.66
2023-10-07T22:15:28.319Z,16.74
2023-10-07T22:17:57.279Z,16.52
2023-10-07T22:20:24.220Z,16.51
2023-10-07T22:22:52.611Z,16.61
2023-10-07T22:25:19.611Z,16.42
2023-10-07T22:27:47.831Z,16.43
2023-10-07T22:30:18.749Z,16.54
2023-10-07T22:32:46.860Z,16.21
2023-10-07T22:35:23.696Z,16.20
2023-10-07T22:37:59.021Z,16.52
2023-10-07T22:40:32.993Z,16.29
2023-10-07T22:43:00.347Z,16.36
2023-10-07T22:45:51.143Z,16.56
2023-10-07T22:48:20.641Z,16.55
2023-10-07T22:51:10.364Z,16.55
2023-10-07T22:53:45.488Z,16.62
2023-10-07T22:56:20.914Z,16.41
2023-10-07T22:58:49.586Z,16.69
2023-10-07T23:01:40.852Z,16.50
2023-10-07T23:04:22.839Z,16.53
2023-10-07T23:06:57.442Z,16.06
2023-10-07T23:09:30.292Z,15.90
2023-10-07T23:11:57.037Z,16.04
2023-10-07T23:14:23.990Z,16.20
2023-10-07T23:16:53.113Z,16.25
2023-10-07T23:19:19.947Z,16.33
2023-10-07T23:22:01.096Z,16.44
2023-10-07T23:24:39.892Z,16.54
2023-10-07T23:27:09.225Z,16.32
2023-10-07T23:29:45.433Z,16.48
2023-10-07T23:32:20.013Z,16.25
2023-10-07T23:34:46.804Z,16.53
2023-10-07T23:37:17.682Z,16.22
2023-10-07T23:39:49.506Z,17.12
2023-10-07T23:42:23.833Z,16.22
2023-10-07T23:44:54.296Z,15.98
2023-10-07T23:47:24.076Z,16.04
2023-10-07T23:49:58.765Z,16.01
2023-10-07T23:52:27.200Z,15.94
2023-10-07T23:54:59.441Z,16.99
2023-10-07T23:57:30.930Z,16.40
2023-10-07T23:59:58.779Z,15.95
